createdAt,value
2018-11-21T07:08:23.542Z,25.50
2018-11-21T07:10:51.799Z,24.47
2018-11-21T07:13:22.840Z,24.33
2018-11-21T07:15:54.606Z,24.53
2018-11-21T07:53:00.168Z,24.57
2018-11-21T07:55:28.413Z,23.50
2018-11-21T07:57:59.187Z,25.10
2018-11-21T08:01:08.395Z,24.30
2018-11-21T08:04:09.750Z,23.73
2018-11-21T08:06:50.188Z,24.67
2018-11-21T08:09:40.218Z,24.13
2018-11-21T08:12:21.990Z,25.50
2018-11-21T08:15:08.144Z,24.07
2018-11-21T08:17:53.867Z,23.40
2018-11-21T08:20:41.448Z,25.00
2018-11-21T08:23:27.393Z,25.17
2018-11-21T08:26:26.787Z,23.77
2018-11-21T08:28:55.102Z,23.87
2018-11-21T08:31:23.712Z,24.07
2018-11-21T08:33:52.020Z,25.10
2018-11-21T08:36:20.457Z,25.03
2018-11-21T08:38:49.138Z,22.97
2018-11-21T08:41:17.839Z,23.70
2018-11-21T08:43:46.804Z,24.37
2018-11-21T08:46:15.326Z,24.53
2018-11-21T10:07:14.734Z,24.60
2018-11-21T10:15:21.473Z,23.50
2018-11-21T10:17:49.962Z,24.93
2018-11-21T10:20:18.476Z,24.77
2018-11-21T10:22:46.628Z,26.23
2018-11-21T10:25:15.473Z,24.97
2018-11-21T10:27:43.923Z,25.30
2018-11-21T10:30:12.968Z,23.47
2018-11-21T10:35:21.916Z,25.13
2018-11-21T10:37:50.446Z,25.57
2018-11-21T10:40:19.096Z,24.90
2018-11-21T10:42:47.956Z,24.83
2018-11-21T10:45:16.754Z,24.97
2018-11-21T10:47:45.116Z,22.43
2018-11-21T10:50:13.333Z,26.37
2018-11-21T10:52:42.551Z,25.40
2018-11-21T10:55:11.036Z,25.70
2018-11-21T10:57:39.478Z,25.47
2018-11-21T11:00:14.215Z,25.10
2018-11-21T11:02:57.739Z,24.30
2018-11-21T11:05:52.013Z,25.07
2018-11-21T11:08:38.093Z,22.60
2018-11-21T11:11:25.705Z,25.60
2018-11-21T11:14:07.496Z,20.03
2018-11-21T11:16:55.267Z,23.13
2018-11-21T11:19:54.577Z,24.43
2018-11-21T11:22:51.003Z,25.53
2018-11-21T11:25:38.531Z,23.93
2018-11-21T11:28:24.414Z,23.40
2018-11-21T11:31:05.630Z,23.60
2018-11-21T11:33:57.339Z,25.27
2018-11-21T11:36:45.731Z,22.83
2018-11-21T11:39:39.138Z,24.67
2018-11-21T11:42:32.245Z,24.73
2018-11-21T11:45:18.145Z,24.30
2018-11-21T11:48:04.223Z,23.97
2018-11-21T11:50:49.799Z,24.47
2018-11-21T11:53:37.486Z,24.70
2018-11-21T11:56:27.904Z,23.50
2018-11-21T11:59:21.294Z,24.87
2018-11-21T12:02:13.135Z,24.27
2018-11-21T12:04:51.016Z,24.33
2018-11-21T12:07:33.366Z,24.80
2018-11-21T12:10:19.271Z,24.37
2018-11-21T12:13:15.335Z,24.67
2018-11-21T12:16:06.009Z,24.17
2018-11-21T12:18:56.393Z,23.07
2018-11-21T12:21:33.316Z,25.13
2018-11-21T12:24:19.643Z,23.73
2018-11-21T12:27:17.183Z,26.03
2018-11-21T12:30:03.150Z,25.00
2018-11-21T12:32:49.586Z,22.97
2018-11-21T12:35:43.515Z,24.37
2018-11-21T12:38:28.265Z,24.53
2018-11-21T12:41:14.651Z,25.03
2018-11-21T12:44:01.115Z,25.47
2018-11-21T12:46:47.319Z,24.60
2018-11-21T12:49:34.367Z,24.33
2018-11-21T12:52:28.094Z,24.07
2018-11-21T12:55:26.612Z,24.47
2018-11-21T12:58:14.953Z,25.23
2018-11-21T13:01:08.360Z,24.33
2018-11-21T13:04:05.160Z,25.30
2018-11-21T13:06:51.273Z,24.73
2018-11-21T13:09:37.371Z,22.80
2018-11-21T13:12:23.592Z,24.27
2018-11-21T13:15:24.992Z,23.30
2018-11-21T13:18:15.380Z,23.23
2018-11-21T13:21:01.717Z,23.50
2018-11-21T13:23:51.310Z,24.70
2018-11-21T13:26:39.393Z,24.80
2018-11-21T13:29:22.592Z,24.67
2018-11-21T13:32:12.979Z,23.33
2018-11-21T13:34:51.316Z,25.70
2018-11-21T13:37:33.063Z,24.87
2018-11-21T13:40:18.908Z,24.63
2018-11-21T13:43:15.303Z,23.23
2018-11-21T13:46:01.184Z,22.53
2018-11-21T13:48:47.845Z,24.80
2018-11-21T13:51:39.015Z,24.30
2018-11-21T13:54:38.494Z,24.67
2018-11-21T13:57:06.994Z,23.80
2018-11-21T13:59:41.349Z,24.47
2018-11-21T14:07:38.838Z,24.63
2018-11-21T14:15:35.348Z,23.37
2018-11-21T14:18:16.348Z,24.10
2018-11-21T14:34:35.322Z,23.53
2018-11-21T14:37:03.464Z,24.47
2018-11-21T14:39:32.677Z,23.93
2018-11-21T14:42:01.056Z,25.30
2018-11-21T14:44:29.807Z,25.27
2018-11-21T14:46:59.636Z,23.90
2018-11-21T14:49:28.497Z,25.20
2018-11-21T14:51:56.997Z,24.73
2018-11-21T14:54:25.239Z,24.93
2018-11-21T14:56:53.944Z,25.50
2018-11-21T14:59:22.699Z,23.33
2018-11-21T15:01:53.657Z,25.80
2018-11-21T15:04:22.360Z,25.53
2018-11-21T15:06:51.298Z,25.80
2018-11-21T15:09:19.886Z,23.57
2018-11-21T15:11:54.031Z,26.60
2018-11-21T15:14:22.986Z,26.03
2018-11-21T15:16:54.678Z,25.57
2018-11-21T16:30:05.159Z,23.80
2018-11-21T16:38:02.645Z,26.47
2018-11-21T16:40:32.120Z,25.33
2018-11-21T16:43:00.891Z,26.50
2018-11-21T16:48:13.822Z,26.83
2018-11-21T16:50:42.760Z,26.33
2018-11-21T17:55:19.931Z,30.50
2018-11-21T17:57:51.096Z,31.50
2018-11-21T18:00:20.729Z,32.37
2018-11-21T18:02:49.139Z,32.13
2018-11-21T18:05:18.911Z,30.37
2018-11-21T18:07:47.174Z,32.93
2018-11-21T18:15:46.322Z,31.20
2018-11-21T18:20:59.192Z,31.53
2018-11-21T18:23:34.925Z,31.80
2018-11-21T19:39:47.283Z,35.13
2018-11-21T19:47:59.479Z,33.67
2018-11-21T19:53:03.850Z,31.93
2018-11-21T19:55:34.081Z,31.83
2018-11-21T19:58:03.020Z,33.47
2018-11-21T20:00:33.567Z,30.80
2018-11-21T20:03:03.061Z,32.37
2018-11-21T20:05:32.904Z,31.80
2018-11-21T20:08:02.527Z,33.87
2018-11-21T20:10:32.161Z,33.73
2018-11-21T20:13:01.189Z,33.90
2018-11-21T20:15:30.813Z,34.00
2018-11-21T20:18:01.321Z,34.70
2018-11-21T20:20:30.970Z,33.30
2018-11-21T20:23:06.296Z,34.27
2018-11-21T20:25:29.885Z,33.23
2018-11-21T20:27:59.910Z,32.20
2018-11-21T20:30:31.559Z,32.73
2018-11-21T20:33:00.707Z,33.20
2018-11-21T20:35:30.819Z,34.13
2018-11-21T20:38:00.115Z,32.40
2018-11-21T20:40:30.927Z,32.43
2018-11-21T20:43:00.276Z,33.33
2018-11-21T20:45:30.154Z,34.33
2018-11-21T20:48:00.253Z,32.43
2018-11-21T20:50:32.633Z,33.13
2018-11-21T20:53:02.627Z,31.07
2018-11-21T20:55:33.212Z,33.30
2018-11-21T20:58:02.846Z,30.67
2018-11-21T21:00:32.476Z,32.57
2018-11-21T21:03:01.845Z,31.33
2018-11-21T21:05:34.074Z,31.73
2018-11-21T21:08:04.343Z,29.33
2018-11-21T21:10:50.118Z,33.03
2018-11-21T21:13:13.502Z,30.77
2018-11-21T21:15:45.635Z,31.70
2018-11-21T21:18:17.548Z,31.17
2018-11-21T21:20:45.103Z,30.37
2018-11-21T21:23:26.549Z,29.87
2018-11-21T21:25:55.214Z,30.53
2018-11-21T21:28:24.416Z,30.43
2018-11-21T21:30:52.920Z,30.60
2018-11-21T21:33:21.579Z,30.07
2018-11-21T21:35:49.967Z,31.10
2018-11-21T21:38:19.986Z,28.43
2018-11-21T21:40:47.260Z,31.00
2018-11-21T21:43:16.197Z,29.93
2018-11-21T21:45:45.296Z,29.50
2018-11-21T21:48:13.394Z,29.17
2018-11-21T21:50:41.973Z,29.27
2018-11-21T21:53:10.436Z,31.30
2018-11-21T21:55:38.684Z,28.80
2018-11-21T21:58:06.919Z,29.17
2018-11-21T22:00:35.550Z,30.03
2018-11-21T22:03:04.470Z,27.77
2018-11-21T22:05:32.961Z,30.27
2018-11-21T22:08:01.169Z,29.93
2018-11-21T22:10:29.885Z,30.10
2018-11-21T22:12:58.631Z,30.00
2018-11-21T22:15:27.944Z,29.77
2018-11-21T22:17:57.928Z,29.03
2018-11-21T22:20:26.198Z,30.53
2018-11-21T22:22:54.692Z,28.53
2018-11-21T22:25:23.814Z,30.07
2018-11-21T22:27:52.591Z,30.47
2018-11-21T22:30:21.418Z,32.07
2018-11-21T22:32:50.367Z,30.83
2018-11-21T22:35:24.927Z,30.17
2018-11-21T22:37:51.351Z,30.80
2018-11-21T22:42:51.009Z,32.23
2018-11-21T22:45:21.088Z,31.67
2018-11-21T22:47:50.214Z,31.13
2018-11-21T22:50:20.189Z,30.80
2018-11-21T22:52:48.811Z,29.80
2018-11-21T22:55:17.609Z,30.00
2018-11-21T22:57:46.315Z,29.63
2018-11-21T23:00:20.598Z,28.40
2018-11-21T23:02:48.848Z,29.70
2018-11-21T23:05:17.131Z,31.00
2018-11-21T23:07:45.694Z,29.77
2018-11-21T23:12:54.558Z,29.87
2018-11-21T23:15:23.100Z,30.57
2018-11-21T23:17:51.399Z,31.93
2018-11-21T23:20:22.145Z,28.63
2018-11-21T23:22:50.728Z,30.07
